sensor_id;sensor_type;location;lat;lon;timestamp;pressure;altitude;pressure_sealevel;temperature;humidity
68712;BME280;55690;51.566;19.198;2023-12-20T00:00:46;100991.31;;;8.03;100.00
68712;BME280;55690;51.566;19.198;2023-12-20T00:04:52;100978.99;;;8.13;100.00
68712;BME280;55690;51.566;19.198;2023-12-20T00:08:58;100985.06;;;7.86;100.00
68712;BME280;55690;51.566;19.198;2023-12-20T00:13:05;100976.59;;;7.92;100.00
68712;BME280;55690;51.566;19.198;2023-12-20T00:17:11;100975.48;;;7.81;100.00
68712;BME280;55690;51.566;19.198;2023-12-20T00:21:17;100954.68;;;7.97;100.00
68712;BME280;55690;51.566;19.198;2023-12-20T00:25:24;100954.63;;;7.83;100.00
68712;BME280;55690;51.566;19.198;2023-12-20T00:29:29;100963.59;;;7.99;100.00
68712;BME280;55690;51.566;19.198;2023-12-20T00:33:35;100953.90;;;7.65;100.00
68712;BME280;55690;51.566;19.198;2023-12-20T00:37:43;100955.32;;;7.86;100.00
68712;BME280;55690;51.566;19.198;2023-12-20T00:41:48;100943.83;;;8.13;100.00
68712;BME280;55690;51.566;19.198;2023-12-20T00:45:54;100953.55;;;8.01;100.00
68712;BME280;55690;51.566;19.198;2023-12-20T00:50:00;100946.94;;;7.91;100.00
68712;BME280;55690;51.566;19.198;2023-12-20T00:54:06;100963.05;;;7.78;100.00
68712;BME280;55690;51.566;19.198;2023-12-20T00:58:12;100959.22;;;7.96;100.00
68712;BME280;55690;51.566;19.198;2023-12-20T01:02:19;100956.66;;;8.09;100.00
68712;BME280;55690;51.566;19.198;2023-12-20T01:06:25;100944.88;;;8.10;100.00
68712;BME280;55690;51.566;19.198;2023-12-20T01:10:33;100939.56;;;8.09;100.00
68712;BME280;55690;51.566;19.198;2023-12-20T01:14:40;100931.86;;;7.87;100.00
68712;BME280;55690;51.566;19.198;2023-12-20T01:18:46;100926.36;;;8.18;100.00
68712;BME280;55690;51.566;19.198;2023-12-20T01:22:52;100924.90;;;8.27;100.00
68712;BME280;55690;51.566;19.198;2023-12-20T01:26:58;100913.58;;;8.06;100.00
68712;BME280;55690;51.566;19.198;2023-12-20T01:31:04;100896.66;;;8.03;100.00
68712;BME280;55690;51.566;19.198;2023-12-20T01:35:11;100895.80;;;8.02;100.00
68712;BME280;55690;51.566;19.198;2023-12-20T01:39:17;100896.20;;;8.10;100.00
68712;BME280;55690;51.566;19.198;2023-12-20T01:43:23;100892.02;;;8.05;100.00
68712;BME280;55690;51.566;19.198;2023-12-20T01:47:29;100883.25;;;8.29;100.00
68712;BME280;55690;51.566;19.198;2023-12-20T01:51:35;100864.16;;;8.32;100.00
68712;BME280;55690;51.566;19.198;2023-12-20T01:55:42;100874.98;;;8.32;100.00
68712;BME280;55690;51.566;19.198;2023-12-20T01:59:48;100865.98;;;8.18;100.00
68712;BME280;55690;51.566;19.198;2023-12-20T02:03:55;100862.85;;;8.24;100.00
68712;BME280;55690;51.566;19.198;2023-12-20T02:08:00;100866.24;;;8.27;100.00
68712;BME280;55690;51.566;19.198;2023-12-20T02:12:06;100858.92;;;8.15;100.00
68712;BME280;55690;51.566;19.198;2023-12-20T02:16:12;100851.02;;;8.41;100.00
68712;BME280;55690;51.566;19.198;2023-12-20T02:20:18;100848.51;;;8.38;100.00
68712;BME280;55690;51.566;19.198;2023-12-20T02:24:25;100842.23;;;8.37;100.00
68712;BME280;55690;51.566;19.198;2023-12-20T02:28:31;100836.53;;;8.56;100.00
68712;BME280;55690;51.566;19.198;2023-12-20T02:32:37;100842.23;;;8.51;100.00
68712;BME280;55690;51.566;19.198;2023-12-20T02:36:43;100830.05;;;8.58;100.00
68712;BME280;55690;51.566;19.198;2023-12-20T02:40:49;100837.02;;;8.48;100.00
68712;BME280;55690;51.566;19.198;2023-12-20T02:44:56;100841.70;;;8.30;100.00
68712;BME280;55690;51.566;19.198;2023-12-20T02:49:02;100836.51;;;8.13;100.00
68712;BME280;55690;51.566;19.198;2023-12-20T02:53:08;100842.13;;;8.39;100.00
68712;BME280;55690;51.566;19.198;2023-12-20T02:57:14;100839.50;;;8.09;100.00
68712;BME280;55690;51.566;19.198;2023-12-20T03:01:20;100833.11;;;8.24;100.00
68712;BME280;55690;51.566;19.198;2023-12-20T03:05:26;100826.95;;;8.22;100.00
68712;BME280;55690;51.566;19.198;2023-12-20T03:09:33;100821.16;;;8.14;100.00
68712;BME280;55690;51.566;19.198;2023-12-20T03:13:39;100815.27;;;8.36;100.00
68712;BME280;55690;51.566;19.198;2023-12-20T03:17:45;100811.50;;;8.52;100.00
68712;BME280;55690;51.566;19.198;2023-12-20T03:21:51;100835.37;;;8.46;100.00
68712;BME280;55690;51.566;19.198;2023-12-20T03:25:58;100812.65;;;8.62;100.00
68712;BME280;55690;51.566;19.198;2023-12-20T03:30:04;100811.85;;;8.32;100.00
68712;BME280;55690;51.566;19.198;2023-12-20T03:34:10;100822.09;;;8.27;100.00
68712;BME280;55690;51.566;19.198;2023-12-20T03:38:16;100817.98;;;8.21;100.00
68712;BME280;55690;51.566;19.198;2023-12-20T03:42:22;100801.84;;;8.34;100.00
68712;BME280;55690;51.566;19.198;2023-12-20T03:46:28;100817.28;;;8.18;100.00
68712;BME280;55690;51.566;19.198;2023-12-20T03:50:35;100830.79;;;8.32;100.00
68712;BME280;55690;51.566;19.198;2023-12-20T03:54:41;100827.64;;;8.40;100.00
68712;BME280;55690;51.566;19.198;2023-12-20T03:58:47;100815.66;;;8.44;100.00
68712;BME280;55690;51.566;19.198;2023-12-20T04:02:53;100813.15;;;8.41;100.00
68712;BME280;55690;51.566;19.198;2023-12-20T04:06:59;100809.75;;;8.51;100.00
68712;BME280;55690;51.566;19.198;2023-12-20T04:11:05;100815.84;;;8.41;100.00
68712;BME280;55690;51.566;19.198;2023-12-20T04:15:11;100821.75;;;8.33;100.00
68712;BME280;55690;51.566;19.198;2023-12-20T04:19:18;100801.74;;;8.36;100.00
68712;BME280;55690;51.566;19.198;2023-12-20T04:23:24;100806.18;;;8.37;100.00
68712;BME280;55690;51.566;19.198;2023-12-20T04:27:30;100799.03;;;8.36;100.00
68712;BME280;55690;51.566;19.198;2023-12-20T04:31:36;100794.97;;;8.43;100.00
68712;BME280;55690;51.566;19.198;2023-12-20T04:35:42;100796.13;;;8.39;100.00
68712;BME280;55690;51.566;19.198;2023-12-20T04:39:48;100804.90;;;8.28;100.00
68712;BME280;55690;51.566;19.198;2023-12-20T04:43:55;100801.94;;;8.32;100.00
68712;BME280;55690;51.566;19.198;2023-12-20T04:48:01;100799.48;;;8.28;100.00
68712;BME280;55690;51.566;19.198;2023-12-20T04:52:07;100796.91;;;8.12;100.00
68712;BME280;55690;51.566;19.198;2023-12-20T04:56:13;100790.72;;;8.10;100.00
68712;BME280;55690;51.566;19.198;2023-12-20T05:00:19;100795.55;;;8.19;100.00
68712;BME280;55690;51.566;19.198;2023-12-20T05:04:26;100792.27;;;8.14;100.00
68712;BME280;55690;51.566;19.198;2023-12-20T05:08:32;100798.06;;;8.22;100.00
68712;BME280;55690;51.566;19.198;2023-12-20T05:12:39;100795.91;;;8.27;100.00
68712;BME280;55690;51.566;19.198;2023-12-20T05:16:45;100796.80;;;8.14;100.00
68712;BME280;55690;51.566;19.198;2023-12-20T05:20:51;100790.05;;;8.21;100.00
68712;BME280;55690;51.566;19.198;2023-12-20T05:24:57;100794.20;;;8.12;100.00
68712;BME280;55690;51.566;19.198;2023-12-20T05:29:03;100798.71;;;8.26;100.00
68712;BME280;55690;51.566;19.198;2023-12-20T05:33:09;100793.81;;;8.18;100.00
68712;BME280;55690;51.566;19.198;2023-12-20T05:37:16;100788.20;;;7.79;100.00
68712;BME280;55690;51.566;19.198;2023-12-20T05:41:22;100791.69;;;8.09;100.00
68712;BME280;55690;51.566;19.198;2023-12-20T05:45:28;100791.48;;;7.98;100.00
68712;BME280;55690;51.566;19.198;2023-12-20T05:49:34;100795.05;;;7.98;100.00
68712;BME280;55690;51.566;19.198;2023-12-20T05:53:40;100795.13;;;7.83;100.00
68712;BME280;55690;51.566;19.198;2023-12-20T05:57:46;100802.98;;;8.01;100.00
68712;BME280;55690;51.566;19.198;2023-12-20T06:01:53;100785.39;;;7.94;100.00
68712;BME280;55690;51.566;19.198;2023-12-20T06:05:59;100787.23;;;8.08;100.00
68712;BME280;55690;51.566;19.198;2023-12-20T06:10:06;100790.51;;;7.99;100.00
68712;BME280;55690;51.566;19.198;2023-12-20T06:14:11;100789.16;;;7.92;100.00
68712;BME280;55690;51.566;19.198;2023-12-20T06:18:17;100792.26;;;8.00;100.00
68712;BME280;55690;51.566;19.198;2023-12-20T06:22:23;100788.29;;;7.77;100.00
68712;BME280;55690;51.566;19.198;2023-12-20T06:26:30;100779.98;;;7.94;100.00
68712;BME280;55690;51.566;19.198;2023-12-20T06:30:36;100780.36;;;7.88;100.00
68712;BME280;55690;51.566;19.198;2023-12-20T06:34:42;100777.18;;;7.96;100.00
68712;BME280;55690;51.566;19.198;2023-12-20T06:38:48;100780.48;;;8.01;100.00
68712;BME280;55690;51.566;19.198;2023-12-20T06:42:54;100781.23;;;7.89;100.00
68712;BME280;55690;51.566;19.198;2023-12-20T06:47:01;100787.80;;;7.85;100.00
68712;BME280;55690;51.566;19.198;2023-12-20T06:51:12;100786.83;;;7.86;100.00
68712;BME280;55690;51.566;19.198;2023-12-20T06:55:14;100786.45;;;7.92;100.00
68712;BME280;55690;51.566;19.198;2023-12-20T06:59:19;100788.95;;;7.81;100.00
68712;BME280;55690;51.566;19.198;2023-12-20T07:03:25;100790.99;;;7.91;100.00
68712;BME280;55690;51.566;19.198;2023-12-20T07:07:31;100752.66;;;7.71;100.00
68712;BME280;55690;51.566;19.198;2023-12-20T07:11:38;100783.08;;;8.03;100.00
68712;BME280;55690;51.566;19.198;2023-12-20T07:15:44;100795.22;;;7.81;100.00
68712;BME280;55690;51.566;19.198;2023-12-20T07:19:50;100801.99;;;7.88;100.00
68712;BME280;55690;51.566;19.198;2023-12-20T07:23:56;100809.33;;;7.86;100.00
68712;BME280;55690;51.566;19.198;2023-12-20T07:28:03;100799.29;;;7.88;100.00
68712;BME280;55690;51.566;19.198;2023-12-20T07:32:09;100807.52;;;8.01;100.00
68712;BME280;55690;51.566;19.198;2023-12-20T07:36:15;100811.20;;;8.14;100.00
68712;BME280;55690;51.566;19.198;2023-12-20T07:40:21;100801.51;;;8.24;100.00
68712;BME280;55690;51.566;19.198;2023-12-20T07:44:27;100804.22;;;8.24;100.00
68712;BME280;55690;51.566;19.198;2023-12-20T07:48:35;100812.46;;;8.23;100.00
68712;BME280;55690;51.566;19.198;2023-12-20T07:52:39;100805.20;;;8.09;100.00
68712;BME280;55690;51.566;19.198;2023-12-20T07:56:46;100803.38;;;8.10;100.00
68712;BME280;55690;51.566;19.198;2023-12-20T08:00:52;100805.51;;;8.19;100.00
68712;BME280;55690;51.566;19.198;2023-12-20T08:04:58;100806.05;;;8.24;100.00
68712;BME280;55690;51.566;19.198;2023-12-20T08:09:04;100805.66;;;8.30;100.00
68712;BME280;55690;51.566;19.198;2023-12-20T08:13:10;100799.23;;;8.18;100.00
68712;BME280;55690;51.566;19.198;2023-12-20T08:17:16;100796.62;;;8.17;100.00
68712;BME280;55690;51.566;19.198;2023-12-20T08:21:23;100800.06;;;7.90;100.00
68712;BME280;55690;51.566;19.198;2023-12-20T08:25:29;100794.48;;;8.08;100.00
68712;BME280;55690;51.566;19.198;2023-12-20T08:29:35;100789.95;;;8.22;100.00
68712;BME280;55690;51.566;19.198;2023-12-20T08:33:43;100787.14;;;8.10;100.00
68712;BME280;55690;51.566;19.198;2023-12-20T08:37:47;100793.04;;;8.16;100.00
68712;BME280;55690;51.566;19.198;2023-12-20T08:41:53;100784.73;;;8.19;100.00
68712;BME280;55690;51.566;19.198;2023-12-20T08:46:00;100788.98;;;8.09;100.00
68712;BME280;55690;51.566;19.198;2023-12-20T08:50:07;100799.61;;;8.12;100.00
68712;BME280;55690;51.566;19.198;2023-12-20T08:54:12;100790.32;;;8.02;100.00
68712;BME280;55690;51.566;19.198;2023-12-20T08:58:18;100792.08;;;8.17;100.00
68712;BME280;55690;51.566;19.198;2023-12-20T09:02:25;100788.96;;;7.95;100.00
68712;BME280;55690;51.566;19.198;2023-12-20T09:06:31;100790.21;;;7.89;100.00
68712;BME280;55690;51.566;19.198;2023-12-20T09:10:37;100795.46;;;8.21;100.00
68712;BME280;55690;51.566;19.198;2023-12-20T09:14:43;100794.02;;;8.15;100.00
68712;BME280;55690;51.566;19.198;2023-12-20T09:18:49;100790.14;;;8.05;100.00
68712;BME280;55690;51.566;19.198;2023-12-20T09:22:55;100788.69;;;8.14;100.00
68712;BME280;55690;51.566;19.198;2023-12-20T09:27:02;100790.72;;;8.10;100.00
68712;BME280;55690;51.566;19.198;2023-12-20T09:31:08;100766.09;;;8.00;100.00
68712;BME280;55690;51.566;19.198;2023-12-20T09:35:14;100796.50;;;8.04;100.00
68712;BME280;55690;51.566;19.198;2023-12-20T09:39:21;100781.24;;;8.03;100.00
68712;BME280;55690;51.566;19.198;2023-12-20T09:43:27;100780.87;;;8.09;100.00
68712;BME280;55690;51.566;19.198;2023-12-20T09:47:33;100784.15;;;8.14;100.00
68712;BME280;55690;51.566;19.198;2023-12-20T09:51:39;100774.49;;;8.10;100.00
68712;BME280;55690;51.566;19.198;2023-12-20T09:55:45;100772.09;;;8.20;100.00
68712;BME280;55690;51.566;19.198;2023-12-20T09:59:51;100765.95;;;8.30;100.00
68712;BME280;55690;51.566;19.198;2023-12-20T10:03:59;100768.70;;;8.02;100.00
68712;BME280;55690;51.566;19.198;2023-12-20T10:08:04;100771.59;;;7.99;100.00
68712;BME280;55690;51.566;19.198;2023-12-20T10:12:10;100765.99;;;8.02;100.00
68712;BME280;55690;51.566;19.198;2023-12-20T10:16:16;100763.48;;;7.99;100.00
68712;BME280;55690;51.566;19.198;2023-12-20T10:20:22;100745.42;;;8.14;100.00
68712;BME280;55690;51.566;19.198;2023-12-20T10:24:29;100747.05;;;8.02;100.00
68712;BME280;55690;51.566;19.198;2023-12-20T10:28:34;100757.49;;;7.94;100.00
68712;BME280;55690;51.566;19.198;2023-12-20T10:32:41;100755.75;;;7.93;100.00
68712;BME280;55690;51.566;19.198;2023-12-20T10:36:47;100754.88;;;8.07;100.00
68712;BME280;55690;51.566;19.198;2023-12-20T10:40:56;100753.34;;;7.74;100.00
68712;BME280;55690;51.566;19.198;2023-12-20T10:45:00;100746.27;;;7.86;100.00
68712;BME280;55690;51.566;19.198;2023-12-20T10:49:07;100752.36;;;7.89;100.00
68712;BME280;55690;51.566;19.198;2023-12-20T10:53:13;100747.63;;;7.93;100.00
68712;BME280;55690;51.566;19.198;2023-12-20T10:57:18;100739.72;;;8.04;100.00
68712;BME280;55690;51.566;19.198;2023-12-20T11:01:24;100754.70;;;8.10;100.00
68712;BME280;55690;51.566;19.198;2023-12-20T11:05:43;100744.26;;;8.04;100.00
68712;BME280;55690;51.566;19.198;2023-12-20T11:09:54;100737.97;;;8.17;100.00
68712;BME280;55690;51.566;19.198;2023-12-20T11:14:00;100741.65;;;8.16;100.00
68712;BME280;55690;51.566;19.198;2023-12-20T11:18:04;100734.84;;;8.23;100.00
68712;BME280;55690;51.566;19.198;2023-12-20T11:22:07;100733.15;;;8.22;100.00
68712;BME280;55690;51.566;19.198;2023-12-20T11:26:08;100728.88;;;8.32;100.00
68712;BME280;55690;51.566;19.198;2023-12-20T11:30:11;100722.38;;;8.49;100.00
68712;BME280;55690;51.566;19.198;2023-12-20T11:34:14;100725.57;;;8.27;100.00
68712;BME280;55690;51.566;19.198;2023-12-20T11:38:20;100708.23;;;8.17;100.00
68712;BME280;55690;51.566;19.198;2023-12-20T11:42:25;100710.23;;;8.42;100.00
68712;BME280;55690;51.566;19.198;2023-12-20T11:46:32;100701.41;;;8.53;100.00
68712;BME280;55690;51.566;19.198;2023-12-20T11:50:39;100715.26;;;8.34;100.00
68712;BME280;55690;51.566;19.198;2023-12-20T11:54:44;100711.28;;;8.25;100.00
68712;BME280;55690;51.566;19.198;2023-12-20T11:58:50;100715.83;;;8.39;100.00
68712;BME280;55690;51.566;19.198;2023-12-20T12:02:57;100703.16;;;8.40;100.00
68712;BME280;55690;51.566;19.198;2023-12-20T12:07:03;100690.61;;;8.39;100.00
68712;BME280;55690;51.566;19.198;2023-12-20T12:11:09;100685.05;;;8.13;100.00
68712;BME280;55690;51.566;19.198;2023-12-20T12:15:15;100696.73;;;8.14;100.00
68712;BME280;55690;51.566;19.198;2023-12-20T12:19:22;100689.50;;;8.00;100.00
68712;BME280;55690;51.566;19.198;2023-12-20T12:23:27;100686.98;;;8.11;100.00
68712;BME280;55690;51.566;19.198;2023-12-20T12:27:33;100682.16;;;8.02;100.00
68712;BME280;55690;51.566;19.198;2023-12-20T12:31:40;100671.24;;;8.04;100.00
68712;BME280;55690;51.566;19.198;2023-12-20T12:35:46;100675.12;;;7.85;100.00
68712;BME280;55690;51.566;19.198;2023-12-20T12:39:55;100670.18;;;8.06;100.00
68712;BME280;55690;51.566;19.198;2023-12-20T12:43:58;100661.68;;;7.98;100.00
68712;BME280;55690;51.566;19.198;2023-12-20T12:48:06;100654.12;;;8.17;100.00
68712;BME280;55690;51.566;19.198;2023-12-20T12:52:10;100644.50;;;7.99;99.39
68712;BME280;55690;51.566;19.198;2023-12-20T12:56:17;100636.83;;;7.79;99.68
68712;BME280;55690;51.566;19.198;2023-12-20T13:00:23;100643.23;;;8.05;99.30
68712;BME280;55690;51.566;19.198;2023-12-20T13:04:30;100632.53;;;7.89;99.60
68712;BME280;55690;51.566;19.198;2023-12-20T13:08:36;100622.73;;;7.74;99.50
68712;BME280;55690;51.566;19.198;2023-12-20T13:12:42;100626.98;;;7.78;98.68
68712;BME280;55690;51.566;19.198;2023-12-20T13:16:48;100630.94;;;7.72;99.72
68712;BME280;55690;51.566;19.198;2023-12-20T13:20:54;100631.80;;;7.73;99.45
68712;BME280;55690;51.566;19.198;2023-12-20T13:25:01;100622.93;;;7.56;100.00
68712;BME280;55690;51.566;19.198;2023-12-20T13:29:07;100631.62;;;7.76;100.00
68712;BME280;55690;51.566;19.198;2023-12-20T13:33:13;100640.20;;;7.54;100.00
68712;BME280;55690;51.566;19.198;2023-12-20T13:37:19;100638.76;;;7.62;100.00
68712;BME280;55690;51.566;19.198;2023-12-20T13:41:25;100638.94;;;7.45;100.00
68712;BME280;55690;51.566;19.198;2023-12-20T13:45:31;100643.39;;;7.60;100.00
68712;BME280;55690;51.566;19.198;2023-12-20T13:49:38;100631.80;;;7.58;100.00
68712;BME280;55690;51.566;19.198;2023-12-20T13:53:44;100618.88;;;7.49;100.00
68712;BME280;55690;51.566;19.198;2023-12-20T13:57:50;100624.17;;;7.37;100.00
68712;BME280;55690;51.566;19.198;2023-12-20T14:01:56;100632.77;;;7.57;100.00
68712;BME280;55690;51.566;19.198;2023-12-20T14:06:03;100635.20;;;7.33;100.00
68712;BME280;55690;51.566;19.198;2023-12-20T14:10:09;100638.55;;;7.23;100.00
68712;BME280;55690;51.566;19.198;2023-12-20T14:14:15;100633.53;;;7.17;100.00
68712;BME280;55690;51.566;19.198;2023-12-20T14:18:21;100630.45;;;7.23;100.00
68712;BME280;55690;51.566;19.198;2023-12-20T14:22:27;100633.44;;;7.18;100.00
68712;BME280;55690;51.566;19.198;2023-12-20T14:26:33;100635.55;;;7.13;100.00
68712;BME280;55690;51.566;19.198;2023-12-20T14:30:40;100629.38;;;7.11;100.00
68712;BME280;55690;51.566;19.198;2023-12-20T14:34:46;100637.66;;;7.08;99.61
68712;BME280;55690;51.566;19.198;2023-12-20T14:38:52;100642.52;;;7.31;100.00
68712;BME280;55690;51.566;19.198;2023-12-20T14:42:58;100643.55;;;7.15;100.00
68712;BME280;55690;51.566;19.198;2023-12-20T14:47:04;100644.43;;;7.15;100.00
68712;BME280;55690;51.566;19.198;2023-12-20T14:51:10;100646.63;;;7.09;100.00
68712;BME280;55690;51.566;19.198;2023-12-20T14:55:16;100645.20;;;7.17;100.00
68712;BME280;55690;51.566;19.198;2023-12-20T14:59:23;100637.38;;;7.13;100.00
68712;BME280;55690;51.566;19.198;2023-12-20T15:03:29;100629.33;;;6.83;100.00
68712;BME280;55690;51.566;19.198;2023-12-20T15:07:35;100630.56;;;6.77;100.00
68712;BME280;55690;51.566;19.198;2023-12-20T15:11:41;100628.31;;;7.14;100.00
68712;BME280;55690;51.566;19.198;2023-12-20T15:15:47;100623.38;;;7.06;99.79
68712;BME280;55690;51.566;19.198;2023-12-20T15:19:54;100619.90;;;6.90;100.00
68712;BME280;55690;51.566;19.198;2023-12-20T15:24:00;100613.23;;;6.95;100.00
68712;BME280;55690;51.566;19.198;2023-12-20T15:28:12;100602.93;;;7.02;99.67
68712;BME280;55690;51.566;19.198;2023-12-20T15:32:13;100613.66;;;7.18;99.00
68712;BME280;55690;51.566;19.198;2023-12-20T15:36:19;100602.46;;;7.10;99.32
68712;BME280;55690;51.566;19.198;2023-12-20T15:40:25;100608.07;;;7.21;98.35
68712;BME280;55690;51.566;19.198;2023-12-20T15:44:31;100605.94;;;7.12;98.99
68712;BME280;55690;51.566;19.198;2023-12-20T15:48:37;100598.05;;;7.23;98.42
68712;BME280;55690;51.566;19.198;2023-12-20T15:52:43;100607.66;;;6.98;99.51
68712;BME280;55690;51.566;19.198;2023-12-20T15:56:49;100593.09;;;7.01;98.92
68712;BME280;55690;51.566;19.198;2023-12-20T16:00:55;100609.11;;;7.04;99.59
68712;BME280;55690;51.566;19.198;2023-12-20T16:05:02;100604.58;;;6.90;100.00
68712;BME280;55690;51.566;19.198;2023-12-20T16:09:08;100597.12;;;6.80;100.00
68712;BME280;55690;51.566;19.198;2023-12-20T16:13:14;100590.12;;;6.91;100.00
68712;BME280;55690;51.566;19.198;2023-12-20T16:17:20;100587.11;;;6.82;100.00
68712;BME280;55690;51.566;19.198;2023-12-20T16:21:26;100587.56;;;6.74;100.00
68712;BME280;55690;51.566;19.198;2023-12-20T16:25:32;100590.22;;;6.90;100.00
68712;BME280;55690;51.566;19.198;2023-12-20T16:29:38;100577.27;;;6.95;100.00
68712;BME280;55690;51.566;19.198;2023-12-20T16:33:45;100568.90;;;6.99;100.00
68712;BME280;55690;51.566;19.198;2023-12-20T16:37:51;100551.92;;;6.97;100.00
68712;BME280;55690;51.566;19.198;2023-12-20T16:41:58;100549.91;;;6.87;100.00
68712;BME280;55690;51.566;19.198;2023-12-20T16:46:03;100540.07;;;7.00;99.73
68712;BME280;55690;51.566;19.198;2023-12-20T16:50:10;100545.66;;;6.97;100.00
68712;BME280;55690;51.566;19.198;2023-12-20T16:54:16;100552.89;;;6.82;99.92
68712;BME280;55690;51.566;19.198;2023-12-20T16:58:22;100542.59;;;6.89;99.40
68712;BME280;55690;51.566;19.198;2023-12-20T17:02:28;100540.70;;;6.61;99.91
68712;BME280;55690;51.566;19.198;2023-12-20T17:06:34;100525.50;;;6.74;99.47
68712;BME280;55690;51.566;19.198;2023-12-20T17:10:40;100521.96;;;6.88;99.12
68712;BME280;55690;51.566;19.198;2023-12-20T17:14:46;100517.71;;;6.84;98.10
68712;BME280;55690;51.566;19.198;2023-12-20T17:18:53;100515.09;;;6.96;98.33
68712;BME280;55690;51.566;19.198;2023-12-20T17:22:59;100503.45;;;6.82;98.71
68712;BME280;55690;51.566;19.198;2023-12-20T17:27:05;100495.23;;;6.69;98.79
68712;BME280;55690;51.566;19.198;2023-12-20T17:31:11;100485.23;;;6.85;98.71
68712;BME280;55690;51.566;19.198;2023-12-20T17:35:17;100486.27;;;6.68;97.98
68712;BME280;55690;51.566;19.198;2023-12-20T17:39:24;100481.93;;;6.66;98.37
68712;BME280;55690;51.566;19.198;2023-12-20T17:43:30;100479.35;;;6.93;97.35
68712;BME280;55690;51.566;19.198;2023-12-20T17:47:36;100471.71;;;6.99;96.78
68712;BME280;55690;51.566;19.198;2023-12-20T17:51:42;100464.59;;;6.70;96.82
68712;BME280;55690;51.566;19.198;2023-12-20T17:55:48;100471.55;;;6.88;97.17
68712;BME280;55690;51.566;19.198;2023-12-20T17:59:54;100476.17;;;6.86;97.39
68712;BME280;55690;51.566;19.198;2023-12-20T18:04:01;100473.25;;;7.18;96.60
68712;BME280;55690;51.566;19.198;2023-12-20T18:08:07;100486.27;;;6.97;96.41
68712;BME280;55690;51.566;19.198;2023-12-20T18:12:13;100471.35;;;6.91;96.79
68712;BME280;55690;51.566;19.198;2023-12-20T18:16:19;100468.80;;;7.17;95.14
68712;BME280;55690;51.566;19.198;2023-12-20T18:20:25;100453.39;;;7.05;94.95
68712;BME280;55690;51.566;19.198;2023-12-20T18:24:31;100461.61;;;6.89;95.57
68712;BME280;55690;51.566;19.198;2023-12-20T18:28:38;100454.06;;;7.08;95.18
68712;BME280;55690;51.566;19.198;2023-12-20T18:32:44;100466.41;;;6.98;95.83
68712;BME280;55690;51.566;19.198;2023-12-20T18:36:50;100361.38;;;6.52;95.53
68712;BME280;55690;51.566;19.198;2023-12-20T18:40:56;100442.52;;;6.78;96.43
68712;BME280;55690;51.566;19.198;2023-12-20T18:45:03;100429.67;;;6.95;96.27
68712;BME280;55690;51.566;19.198;2023-12-20T18:49:09;100439.73;;;6.79;95.76
68712;BME280;55690;51.566;19.198;2023-12-20T18:53:15;100446.19;;;6.91;94.76
68712;BME280;55690;51.566;19.198;2023-12-20T18:57:21;100459.11;;;6.86;95.23
68712;BME280;55690;51.566;19.198;2023-12-20T19:01:27;100448.56;;;6.95;94.60
68712;BME280;55690;51.566;19.198;2023-12-20T19:05:33;100524.54;;;7.04;95.12
68712;BME280;55690;51.566;19.198;2023-12-20T19:09:39;100559.41;;;6.04;96.68
68712;BME280;55690;51.566;19.198;2023-12-20T19:13:46;100580.26;;;5.53;97.74
68712;BME280;55690;51.566;19.198;2023-12-20T19:17:52;100548.67;;;5.24;100.00
68712;BME280;55690;51.566;19.198;2023-12-20T19:21:58;100555.73;;;5.42;99.64
68712;BME280;55690;51.566;19.198;2023-12-20T19:26:05;100557.30;;;5.46;99.30
68712;BME280;55690;51.566;19.198;2023-12-20T19:30:12;100550.44;;;5.41;99.83
68712;BME280;55690;51.566;19.198;2023-12-20T19:34:16;100552.80;;;5.47;100.00
68712;BME280;55690;51.566;19.198;2023-12-20T19:38:23;100552.70;;;5.48;99.56
68712;BME280;55690;51.566;19.198;2023-12-20T19:42:29;100534.21;;;5.58;99.73
68712;BME280;55690;51.566;19.198;2023-12-20T19:46:35;100550.96;;;5.79;99.91
68712;BME280;55690;51.566;19.198;2023-12-20T19:50:41;100544.70;;;5.78;100.00
68712;BME280;55690;51.566;19.198;2023-12-20T19:54:47;100569.30;;;5.88;100.00
68712;BME280;55690;51.566;19.198;2023-12-20T19:58:54;100584.77;;;5.84;100.00
68712;BME280;55690;51.566;19.198;2023-12-20T20:03:00;100581.46;;;5.63;100.00
68712;BME280;55690;51.566;19.198;2023-12-20T20:07:06;100580.85;;;5.74;100.00
68712;BME280;55690;51.566;19.198;2023-12-20T20:11:15;100580.16;;;5.71;100.00
68712;BME280;55690;51.566;19.198;2023-12-20T20:15:18;100583.41;;;5.93;100.00
68712;BME280;55690;51.566;19.198;2023-12-20T20:19:24;100590.08;;;5.86;100.00
68712;BME280;55690;51.566;19.198;2023-12-20T20:23:31;100601.45;;;5.75;100.00
68712;BME280;55690;51.566;19.198;2023-12-20T20:27:37;100603.20;;;6.08;100.00
68712;BME280;55690;51.566;19.198;2023-12-20T20:31:43;100599.64;;;6.07;100.00
68712;BME280;55690;51.566;19.198;2023-12-20T20:35:49;100598.11;;;6.03;100.00
68712;BME280;55690;51.566;19.198;2023-12-20T20:39:55;100610.85;;;5.84;100.00
68712;BME280;55690;51.566;19.198;2023-12-20T20:44:02;100611.02;;;5.81;100.00
68712;BME280;55690;51.566;19.198;2023-12-20T20:48:08;100599.59;;;5.93;100.00
68712;BME280;55690;51.566;19.198;2023-12-20T20:52:14;100598.51;;;6.11;99.85
68712;BME280;55690;51.566;19.198;2023-12-20T20:56:20;100602.11;;;5.96;99.21
68712;BME280;55690;51.566;19.198;2023-12-20T21:00:26;100593.72;;;6.16;98.78
68712;BME280;55690;51.566;19.198;2023-12-20T21:04:32;100598.98;;;6.04;98.07
68712;BME280;55690;51.566;19.198;2023-12-20T21:08:39;100597.50;;;5.98;98.73
68712;BME280;55690;51.566;19.198;2023-12-20T21:12:45;100594.50;;;6.18;98.22